createdAt,value
2023-04-28T00:00:04.834Z,95263.00
2023-04-28T00:01:04.851Z,95263.00
2023-04-28T00:02:04.820Z,95263.00
2023-04-28T00:03:04.920Z,95263.00
2023-04-28T00:04:04.998Z,95263.00
2023-04-28T00:05:05.040Z,95261.00
2023-04-28T00:06:04.794Z,95263.00
2023-04-28T00:07:04.791Z,95261.00
2023-04-28T00:08:04.787Z,95259.00
2023-04-28T00:09:04.762Z,95257.00
2023-04-28T00:10:04.756Z,95255.00
2023-04-28T00:11:04.767Z,95255.00
2023-04-28T00:12:04.748Z,95255.00
2023-04-28T00:13:04.776Z,95253.00
2023-04-28T00:14:04.736Z,95251.00
2023-04-28T00:15:04.947Z,95253.00
2023-04-28T00:16:04.755Z,95255.00
2023-04-28T00:17:04.845Z,95253.00
2023-04-28T00:18:04.762Z,95249.00
2023-04-28T00:19:04.705Z,95247.00
2023-04-28T00:20:04.811Z,95247.00
2023-04-28T00:21:04.725Z,95247.00
2023-04-28T00:22:04.735Z,95247.00
2023-04-28T00:23:04.684Z,95247.00
2023-04-28T00:24:04.670Z,95251.00
2023-04-28T00:25:04.722Z,95251.00
2023-04-28T00:26:04.688Z,95251.00
2023-04-28T00:27:04.688Z,95253.00
2023-04-28T00:28:04.664Z,95251.00
2023-04-28T00:29:04.677Z,95251.00
2023-04-28T00:30:04.949Z,95255.00
2023-04-28T00:31:04.642Z,95253.00
2023-04-28T00:32:04.816Z,95255.00
2023-04-28T00:33:04.675Z,95255.00
2023-04-28T00:34:04.635Z,95257.00
2023-04-28T00:35:04.980Z,95259.00
2023-04-28T00:36:04.623Z,95261.00
2023-04-28T00:37:04.675Z,95261.00
2023-04-28T00:38:04.633Z,95261.00
2023-04-28T00:39:04.668Z,95261.00
2023-04-28T00:40:04.694Z,95261.00
2023-04-28T00:41:04.711Z,95259.00
2023-04-28T00:42:04.750Z,95257.00
2023-04-28T00:43:04.720Z,95261.00
2023-04-28T00:44:04.787Z,95259.00
2023-04-28T00:45:04.950Z,95255.00
2023-04-28T00:46:04.828Z,95255.00
2023-04-28T00:47:04.855Z,95253.00
2023-04-28T00:48:04.927Z,95255.00
2023-04-28T00:49:04.903Z,95255.00
2023-04-28T00:50:04.926Z,95255.00
2023-04-28T00:51:05.456Z,95257.00
2023-04-28T00:52:04.933Z,95257.00
2023-04-28T00:53:05.002Z,95257.00
2023-04-28T00:54:04.997Z,95255.00
2023-04-28T00:55:05.049Z,95253.00
2023-04-28T00:56:05.065Z,95253.00
2023-04-28T00:57:05.074Z,95255.00
2023-04-28T00:58:05.135Z,95251.00
2023-04-28T00:59:05.099Z,95255.00
2023-04-28T01:00:05.145Z,95255.00
2023-04-28T01:01:05.246Z,95251.00
2023-04-28T01:02:05.171Z,95253.00
2023-04-28T01:03:05.324Z,95253.00
2023-04-28T01:04:05.303Z,95247.00
2023-04-28T01:05:05.247Z,95246.00
2023-04-28T01:06:05.453Z,95244.00
2023-04-28T01:07:05.306Z,95242.00
2023-04-28T01:08:05.302Z,95240.00
2023-04-28T01:09:05.311Z,95242.00
2023-04-28T01:10:05.361Z,95242.00
2023-04-28T01:11:05.353Z,95242.00
2023-04-28T01:12:05.379Z,95240.00
2023-04-28T01:13:05.404Z,95236.00
2023-04-28T01:14:05.433Z,95234.00
2023-04-28T01:15:05.428Z,95232.00
2023-04-28T01:16:05.560Z,95228.00
2023-04-28T01:17:05.522Z,95230.00
2023-04-28T01:18:05.575Z,95230.00
2023-04-28T01:19:05.567Z,95232.00
2023-04-28T01:20:05.682Z,95234.00
2023-04-28T01:21:05.583Z,95236.00
2023-04-28T01:22:05.608Z,95230.00
2023-04-28T01:23:05.662Z,95232.00
2023-04-28T01:24:05.673Z,95232.00
2023-04-28T01:25:05.732Z,95230.00
2023-04-28T01:26:05.959Z,95230.00
2023-04-28T01:27:05.744Z,95228.00
2023-04-28T01:28:05.806Z,95230.00
2023-04-28T01:29:05.806Z,95226.00
2023-04-28T01:30:05.847Z,95222.00
2023-04-28T01:31:05.869Z,95218.00
2023-04-28T01:32:05.855Z,95218.00
2023-04-28T01:33:05.960Z,95220.00
2023-04-28T01:34:05.942Z,95220.00
2023-04-28T01:35:05.975Z,95226.00
2023-04-28T01:36:05.967Z,95226.00
2023-04-28T01:37:05.991Z,95228.00
2023-04-28T01:38:06.054Z,95224.00
2023-04-28T01:39:06.079Z,95222.00
2023-04-28T01:40:06.065Z,95218.00
2023-04-28T01:41:06.171Z,95220.00
2023-04-28T01:42:06.172Z,95218.00
2023-04-28T01:43:06.182Z,95220.00
2023-04-28T01:44:06.273Z,95220.00
2023-04-28T01:45:06.219Z,95218.00
2023-04-28T01:46:06.270Z,95220.00
2023-04-28T01:47:06.239Z,95220.00
2023-04-28T01:48:06.338Z,95222.00
2023-04-28T01:49:06.328Z,95220.00
2023-04-28T01:50:06.346Z,95220.00
2023-04-28T01:51:06.370Z,95220.00
2023-04-28T01:52:06.401Z,95222.00
2023-04-28T01:53:06.385Z,95222.00
2023-04-28T01:54:06.954Z,95222.00
2023-04-28T01:55:06.452Z,95218.00
2023-04-28T01:56:06.460Z,95218.00
2023-04-28T01:57:06.461Z,95212.00
2023-04-28T01:58:06.519Z,95210.00
2023-04-28T01:59:06.515Z,95212.00
2023-04-28T02:00:06.519Z,95214.00
2023-04-28T02:01:06.685Z,95220.00
2023-04-28T02:02:06.609Z,95220.00
2023-04-28T02:03:06.673Z,95220.00
2023-04-28T02:04:06.653Z,95222.00
2023-04-28T02:05:06.683Z,95222.00
2023-04-28T02:06:06.661Z,95226.00
2023-04-28T02:07:06.688Z,95224.00
2023-04-28T02:08:06.693Z,95224.00
2023-04-28T02:09:06.744Z,95226.00
2023-04-28T02:10:06.794Z,95226.00
2023-04-28T02:11:06.824Z,95228.00
2023-04-28T02:12:06.823Z,95228.00
2023-04-28T02:13:06.835Z,95228.00
2023-04-28T02:14:06.854Z,95228.00
2023-04-28T02:15:06.900Z,95220.00
2023-04-28T02:16:06.983Z,95218.00
2023-04-28T02:17:06.953Z,95208.00
2023-04-28T02:18:06.994Z,95206.00
2023-04-28T02:19:07.001Z,95214.00
2023-04-28T02:20:07.041Z,95208.00
2023-04-28T02:21:07.051Z,95214.00
2023-04-28T02:22:07.053Z,95210.00
2023-04-28T02:23:07.110Z,95208.00
2023-04-28T02:24:07.128Z,95214.00
2023-04-28T02:25:07.140Z,95210.00
2023-04-28T02:26:07.133Z,95204.00
2023-04-28T02:27:07.181Z,95202.00
2023-04-28T02:28:07.228Z,95200.00
2023-04-28T02:29:07.256Z,95202.00
2023-04-28T02:30:07.268Z,95202.00
2023-04-28T02:31:07.372Z,95202.00
2023-04-28T02:32:07.353Z,95202.00
2023-04-28T02:33:07.491Z,95198.00
2023-04-28T02:34:07.444Z,95200.00
2023-04-28T02:35:07.457Z,95198.00
2023-04-28T02:36:07.499Z,95196.00
2023-04-28T02:37:07.512Z,95196.00
2023-04-28T02:38:07.577Z,95198.00
2023-04-28T02:39:07.573Z,95200.00
2023-04-28T02:40:07.631Z,95195.00
2023-04-28T02:41:07.617Z,95193.00
2023-04-28T02:42:07.638Z,95191.00
2023-04-28T02:43:08.090Z,95191.00
2023-04-28T02:44:07.720Z,95191.00
2023-04-28T02:45:07.720Z,95191.00
2023-04-28T02:46:07.879Z,95189.00
2023-04-28T02:47:07.884Z,95189.00
2023-04-28T02:48:07.838Z,95187.00
2023-04-28T02:49:07.861Z,95189.00
2023-04-28T02:50:07.887Z,95191.00
2023-04-28T02:51:07.906Z,95193.00
2023-04-28T02:52:07.931Z,95191.00
2023-04-28T02:53:07.928Z,95187.00
2023-04-28T02:54:07.993Z,95187.00
2023-04-28T02:55:08.025Z,95179.00
2023-04-28T02:56:08.051Z,95179.00
2023-04-28T02:57:08.065Z,95173.00
2023-04-28T02:58:08.090Z,95173.00
2023-04-28T02:59:08.996Z,95169.00
2023-04-28T03:00:08.171Z,95169.00
2023-04-28T03:01:08.184Z,95165.00
2023-04-28T03:02:08.210Z,95163.00
2023-04-28T03:03:08.348Z,95161.00
2023-04-28T03:04:08.392Z,95163.00
2023-04-28T03:05:08.305Z,95163.00
2023-04-28T03:06:08.319Z,95159.00
2023-04-28T03:07:08.341Z,95157.00
2023-04-28T03:08:08.375Z,95151.00
2023-04-28T03:09:08.419Z,95153.00
2023-04-28T03:10:08.451Z,95153.00
2023-04-28T03:11:09.016Z,95155.00
2023-04-28T03:12:08.547Z,95155.00
2023-04-28T03:13:08.565Z,95157.00
2023-04-28T03:14:08.599Z,95161.00
2023-04-28T03:15:08.625Z,95157.00
2023-04-28T03:16:08.689Z,95159.00
2023-04-28T03:17:08.665Z,95157.00
2023-04-28T03:18:08.705Z,95157.00
2023-04-28T03:19:08.727Z,95153.00
2023-04-28T03:20:08.771Z,95149.00
2023-04-28T03:21:08.794Z,95142.00
2023-04-28T03:22:08.832Z,95149.00
2023-04-28T03:23:08.848Z,95140.00
2023-04-28T03:24:08.892Z,95138.00
2023-04-28T03:25:08.916Z,95136.00
2023-04-28T03:26:08.932Z,95134.00
2023-04-28T03:27:08.965Z,95132.00
2023-04-28T03:28:09.015Z,95132.00
2023-04-28T03:29:09.025Z,95134.00
2023-04-28T03:30:09.053Z,95136.00
2023-04-28T03:31:09.087Z,95136.00
2023-04-28T03:32:09.220Z,95136.00
2023-04-28T03:33:09.200Z,95138.00
2023-04-28T03:34:09.133Z,95136.00
2023-04-28T03:35:09.201Z,95138.00
2023-04-28T03:36:09.198Z,95138.00
2023-04-28T03:37:09.273Z,95136.00
2023-04-28T03:38:09.292Z,95134.00
2023-04-28T03:39:09.994Z,95134.00
2023-04-28T03:40:09.350Z,95134.00
2023-04-28T03:41:09.391Z,95136.00
2023-04-28T03:42:09.407Z,95138.00
2023-04-28T03:43:09.447Z,95140.00
2023-04-28T03:44:09.474Z,95140.00
2023-04-28T03:45:09.514Z,95140.00
2023-04-28T03:46:09.579Z,95140.00
2023-04-28T03:47:09.584Z,95140.00
2023-04-28T03:48:09.636Z,95142.00
2023-04-28T03:49:09.676Z,95140.00
2023-04-28T03:50:09.665Z,95142.00
2023-04-28T03:51:09.733Z,95142.00
2023-04-28T03:52:09.737Z,95149.00
2023-04-28T03:53:09.772Z,95142.00
2023-04-28T03:54:09.840Z,95142.00
2023-04-28T03:55:09.840Z,95142.00
2023-04-28T03:56:10.034Z,95142.00
2023-04-28T03:57:09.910Z,95142.00
2023-04-28T03:58:09.935Z,95140.00
2023-04-28T03:59:09.979Z,95138.00
2023-04-28T04:00:10.035Z,95138.00
2023-04-28T04:01:10.027Z,95138.00
2023-04-28T04:02:10.102Z,95138.00
2023-04-28T04:03:10.251Z,95140.00
2023-04-28T04:04:10.414Z,95138.00
2023-04-28T04:05:10.379Z,95134.00
2023-04-28T04:06:10.496Z,95138.00
2023-04-28T04:07:10.235Z,95134.00
2023-04-28T04:08:10.237Z,95138.00
2023-04-28T04:09:10.293Z,95138.00
2023-04-28T04:10:10.312Z,95140.00
2023-04-28T04:11:10.495Z,95140.00
2023-04-28T04:12:10.388Z,95134.00
2023-04-28T04:13:10.443Z,95134.00
2023-04-28T04:14:10.428Z,95132.00
2023-04-28T04:15:10.448Z,95132.00
2023-04-28T04:16:10.574Z,95130.00
2023-04-28T04:17:10.538Z,95132.00
2023-04-28T04:18:10.641Z,95132.00
2023-04-28T04:19:10.599Z,95132.00
2023-04-28T04:20:10.635Z,95134.00
2023-04-28T04:21:11.049Z,95136.00
2023-04-28T04:22:10.676Z,95134.00
2023-04-28T04:23:10.699Z,95134.00
2023-04-28T04:24:10.755Z,95134.00
2023-04-28T04:25:10.823Z,95138.00
2023-04-28T04:26:10.811Z,95136.00
2023-04-28T04:27:10.886Z,95136.00
2023-04-28T04:28:10.872Z,95136.00
2023-04-28T04:29:10.910Z,95138.00
2023-04-28T04:30:10.983Z,95140.00
2023-04-28T04:31:10.999Z,95140.00
2023-04-28T04:32:10.986Z,95140.00
2023-04-28T04:33:11.031Z,95138.00
2023-04-28T04:34:11.062Z,95136.00
2023-04-28T04:35:11.119Z,95138.00
2023-04-28T04:36:11.134Z,95140.00
2023-04-28T04:37:11.133Z,95142.00
2023-04-28T04:38:11.176Z,95142.00
2023-04-28T04:39:11.221Z,95142.00
2023-04-28T04:40:11.298Z,95149.00
2023-04-28T04:41:11.297Z,95142.00
2023-04-28T04:42:23.282Z,95140.00
2023-04-28T04:43:12.324Z,95140.00
2023-04-28T04:44:12.576Z,95142.00
2023-04-28T04:45:11.280Z,95142.00
2023-04-28T04:46:11.502Z,95142.00
2023-04-28T04:47:11.303Z,95149.00
2023-04-28T04:48:11.341Z,95142.00
2023-04-28T04:49:11.320Z,95149.00
2023-04-28T04:50:11.321Z,95149.00
2023-04-28T04:51:11.426Z,95151.00
2023-04-28T04:52:11.445Z,95149.00
2023-04-28T04:53:13.992Z,95151.00
2023-04-28T04:54:11.446Z,95142.00
2023-04-28T04:55:11.498Z,95142.00
2023-04-28T04:56:11.467Z,95142.00
2023-04-28T04:57:11.437Z,95138.00
2023-04-28T04:58:11.427Z,95142.00
2023-04-28T04:59:11.438Z,95142.00
2023-04-28T05:00:11.437Z,95155.00
2023-04-28T05:01:11.394Z,95155.00
2023-04-28T05:02:11.565Z,95157.00
2023-04-28T05:03:11.444Z,95159.00
2023-04-28T05:04:11.662Z,95155.00
2023-04-28T05:05:20.382Z,95165.00
2023-04-28T05:06:12.545Z,95165.00
2023-04-28T05:07:11.384Z,95163.00
2023-04-28T05:08:11.342Z,95163.00
2023-04-28T05:09:11.349Z,95165.00
2023-04-28T05:10:11.333Z,95165.00
2023-04-28T05:11:11.575Z,95171.00
2023-04-28T05:12:11.346Z,95171.00
2023-04-28T05:13:11.338Z,95177.00
2023-04-28T05:14:11.311Z,95179.00
2023-04-28T05:15:11.320Z,95179.00
2023-04-28T05:16:11.327Z,95181.00
2023-04-28T05:17:11.355Z,95183.00
2023-04-28T05:18:11.450Z,95179.00
2023-04-28T05:19:11.461Z,95183.00
2023-04-28T05:20:12.748Z,95183.00
2023-04-28T05:21:11.543Z,95185.00
2023-04-28T05:22:11.572Z,95189.00
2023-04-28T05:23:11.613Z,95189.00
2023-04-28T05:24:11.692Z,95191.00
2023-04-28T05:25:11.714Z,95187.00
2023-04-28T05:26:11.745Z,95189.00
2023-04-28T05:27:11.823Z,95187.00
2023-04-28T05:28:11.848Z,95187.00
2023-04-28T05:29:11.936Z,95187.00
2023-04-28T05:30:11.899Z,95187.00
2023-04-28T05:31:11.993Z,95187.00
2023-04-28T05:32:12.099Z,95189.00
2023-04-28T05:33:12.065Z,95187.00
2023-04-28T05:34:12.074Z,95189.00
2023-04-28T05:35:12.102Z,95187.00
2023-04-28T05:36:12.114Z,95187.00
2023-04-28T05:37:12.531Z,95189.00
2023-04-28T05:38:12.212Z,95191.00
2023-04-28T05:39:12.196Z,95187.00
2023-04-28T05:40:12.232Z,95189.00
2023-04-28T05:41:12.285Z,95191.00
2023-04-28T05:42:12.300Z,95191.00
2023-04-28T05:43:12.356Z,95196.00
2023-04-28T05:44:12.391Z,95198.00
2023-04-28T05:45:12.414Z,95200.00
2023-04-28T05:46:28.266Z,95202.00
2023-04-28T05:47:13.447Z,95202.00
2023-04-28T05:48:12.550Z,95202.00
2023-04-28T05:49:12.437Z,95204.00
2023-04-28T05:50:12.452Z,95202.00
2023-04-28T05:51:12.440Z,95204.00
2023-04-28T05:52:12.435Z,95200.00
2023-04-28T05:53:12.458Z,95208.00
2023-04-28T05:54:12.433Z,95210.00
2023-04-28T05:55:12.486Z,95204.00
2023-04-28T05:56:12.386Z,95214.00
2023-04-28T05:57:12.550Z,95218.00
2023-04-28T05:58:12.419Z,95218.00
2023-04-28T05:59:12.397Z,95218.00
2023-04-28T06:00:12.366Z,95224.00
2023-04-28T06:01:12.354Z,95226.00
2023-04-28T06:02:12.557Z,95220.00
2023-04-28T06:03:12.499Z,95224.00
2023-04-28T06:04:12.566Z,95224.00
2023-04-28T06:05:12.566Z,95230.00
2023-04-28T06:06:12.474Z,95230.00
2023-04-28T06:07:12.519Z,95232.00
2023-04-28T06:08:12.505Z,95226.00
2023-04-28T06:09:12.530Z,95232.00
2023-04-28T06:10:12.537Z,95236.00
2023-04-28T06:11:12.562Z,95236.00
2023-04-28T06:12:12.612Z,95236.00
2023-04-28T06:13:13.961Z,95238.00
2023-04-28T06:14:12.700Z,95238.00
2023-04-28T06:15:12.722Z,95246.00
2023-04-28T06:16:12.827Z,95246.00
2023-04-28T06:17:12.838Z,95247.00
2023-04-28T06:18:12.867Z,95249.00
2023-04-28T06:19:12.932Z,95249.00
2023-04-28T06:20:12.944Z,95251.00
2023-04-28T06:21:12.936Z,95257.00
2023-04-28T06:22:13.061Z,95259.00
2023-04-28T06:23:12.986Z,95253.00
2023-04-28T06:24:13.028Z,95257.00
2023-04-28T06:25:13.031Z,95257.00
2023-04-28T06:26:13.053Z,95259.00
2023-04-28T06:27:13.547Z,95261.00
2023-04-28T06:28:13.049Z,95261.00
2023-04-28T06:29:13.056Z,95263.00
2023-04-28T06:30:13.120Z,95265.00
2023-04-28T06:31:13.153Z,95263.00
2023-04-28T06:32:13.561Z,95267.00
2023-04-28T06:33:13.176Z,95261.00
2023-04-28T06:34:13.202Z,95263.00
2023-04-28T06:35:13.174Z,95265.00
2023-04-28T06:36:13.233Z,95267.00
2023-04-28T06:37:13.251Z,95265.00
2023-04-28T06:38:13.264Z,95269.00
2023-04-28T06:39:13.313Z,95267.00
2023-04-28T06:40:13.327Z,95267.00
2023-04-28T06:41:13.358Z,95269.00
2023-04-28T06:42:13.369Z,95273.00
2023-04-28T06:43:13.395Z,95273.00
2023-04-28T06:44:13.415Z,95273.00
2023-04-28T06:45:13.422Z,95273.00
2023-04-28T06:46:13.501Z,95275.00
2023-04-28T06:47:13.502Z,95275.00
2023-04-28T06:48:13.541Z,95275.00
2023-04-28T06:49:13.539Z,95275.00
2023-04-28T06:50:13.589Z,95277.00
2023-04-28T06:51:13.612Z,95277.00
2023-04-28T06:52:13.657Z,95279.00
2023-04-28T06:53:13.685Z,95279.00
2023-04-28T06:54:13.722Z,95277.00
2023-04-28T06:55:13.786Z,95277.00
2023-04-28T06:56:13.810Z,95277.00
2023-04-28T06:57:13.873Z,95277.00
2023-04-28T06:58:13.874Z,95273.00
2023-04-28T06:59:13.898Z,95277.00
2023-04-28T07:00:13.974Z,95277.00
2023-04-28T07:01:14.082Z,95277.00
2023-04-28T07:02:14.104Z,95271.00
2023-04-28T07:03:14.166Z,95273.00
2023-04-28T07:04:14.232Z,95267.00
2023-04-28T07:05:16.041Z,95269.00
2023-04-28T07:06:14.216Z,95267.00
2023-04-28T07:07:14.292Z,95263.00
2023-04-28T07:08:14.305Z,95267.00
2023-04-28T07:09:14.328Z,95261.00
2023-04-28T07:10:14.402Z,95259.00
2023-04-28T07:11:14.458Z,95263.00
2023-04-28T07:12:14.499Z,95261.00
2023-04-28T07:13:14.531Z,95263.00
2023-04-28T07:14:14.679Z,95263.00
2023-04-28T07:15:14.889Z,95261.00
2023-04-28T07:16:14.708Z,95263.00
2023-04-28T07:17:14.728Z,95263.00
2023-04-28T07:18:14.788Z,95263.00
2023-04-28T07:19:14.777Z,95259.00
2023-04-28T07:20:14.903Z,95265.00
2023-04-28T07:21:14.855Z,95265.00
2023-04-28T07:22:14.902Z,95261.00
2023-04-28T07:23:14.892Z,95259.00
2023-04-28T07:24:15.215Z,95259.00
2023-04-28T07:25:15.152Z,95257.00
2023-04-28T07:26:15.033Z,95255.00
2023-04-28T07:27:15.594Z,95255.00
2023-04-28T07:28:15.074Z,95255.00
2023-04-28T07:29:15.135Z,95255.00
2023-04-28T07:30:26.545Z,95257.00
2023-04-28T07:31:16.156Z,95257.00
2023-04-28T07:32:15.699Z,95257.00
2023-04-28T07:33:15.177Z,95259.00
2023-04-28T07:34:15.254Z,95263.00
2023-04-28T07:35:15.107Z,95259.00
2023-04-28T07:36:15.109Z,95261.00
2023-04-28T07:37:15.123Z,95259.00
2023-04-28T07:38:15.094Z,95261.00
2023-04-28T07:39:15.089Z,95267.00
2023-04-28T07:40:15.032Z,95265.00
2023-04-28T07:41:15.101Z,95263.00
2023-04-28T07:42:15.071Z,95263.00
2023-04-28T07:43:15.061Z,95265.00
2023-04-28T07:44:15.301Z,95263.00
2023-04-28T07:45:15.121Z,95263.00
2023-04-28T07:46:15.195Z,95267.00
2023-04-28T07:47:15.597Z,95269.00
2023-04-28T07:48:15.246Z,95271.00
2023-04-28T07:49:15.252Z,95255.00
2023-04-28T07:50:15.252Z,95269.00
2023-04-28T07:51:15.295Z,95271.00
2023-04-28T07:52:15.381Z,95275.00
2023-04-28T07:53:15.378Z,95271.00
2023-04-28T07:54:15.632Z,95269.00
2023-04-28T07:55:15.494Z,95273.00
2023-04-28T07:56:15.515Z,95271.00
2023-04-28T07:57:15.629Z,95269.00
2023-04-28T07:58:15.543Z,95269.00
2023-04-28T07:59:15.588Z,95267.00
2023-04-28T08:00:15.622Z,95271.00
2023-04-28T08:01:15.620Z,95271.00
2023-04-28T08:02:16.123Z,95271.00
2023-04-28T08:03:15.968Z,95271.00
2023-04-28T08:04:16.110Z,95271.00
2023-04-28T08:05:16.107Z,95269.00
2023-04-28T08:06:15.818Z,95271.00
2023-04-28T08:07:16.107Z,95275.00
2023-04-28T08:08:15.889Z,95273.00
2023-04-28T08:09:15.885Z,95273.00
2023-04-28T08:10:15.957Z,95273.00
2023-04-28T08:11:15.916Z,95273.00
2023-04-28T08:12:15.986Z,95277.00
2023-04-28T08:13:15.997Z,95275.00
2023-04-28T08:14:16.122Z,95275.00
2023-04-28T08:15:17.275Z,95275.00
2023-04-28T08:16:16.102Z,95275.00
2023-04-28T08:17:16.561Z,95275.00
2023-04-28T08:18:16.204Z,95277.00
2023-04-28T08:19:16.221Z,95277.00
2023-04-28T08:20:16.287Z,95281.00
2023-04-28T08:21:16.318Z,95281.00
2023-04-28T08:22:16.605Z,95281.00
2023-04-28T08:23:16.408Z,95281.00
2023-04-28T08:24:16.553Z,95283.00
2023-04-28T08:25:16.501Z,95289.00
2023-04-28T08:26:16.534Z,95289.00
2023-04-28T08:27:16.601Z,95289.00
2023-04-28T08:28:16.648Z,95290.00
2023-04-28T08:29:16.647Z,95289.00
2023-04-28T08:30:16.713Z,95289.00
2023-04-28T08:31:16.752Z,95289.00
2023-04-28T08:32:16.828Z,95289.00
2023-04-28T08:33:16.907Z,95296.00
2023-04-28T08:34:17.054Z,95294.00
2023-04-28T08:35:16.902Z,95294.00
2023-04-28T08:36:16.912Z,95292.00
2023-04-28T08:37:16.935Z,95289.00
2023-04-28T08:38:17.021Z,95298.00
2023-04-28T08:39:17.034Z,95290.00
2023-04-28T08:40:17.076Z,95285.00
2023-04-28T08:41:17.123Z,95294.00
2023-04-28T08:42:17.152Z,95294.00
2023-04-28T08:43:17.207Z,95294.00
2023-04-28T08:44:17.565Z,95290.00
2023-04-28T08:45:17.293Z,95292.00
2023-04-28T08:46:17.347Z,95290.00
2023-04-28T08:47:17.389Z,95290.00
2023-04-28T08:48:17.393Z,95292.00
2023-04-28T08:49:17.459Z,95292.00
2023-04-28T08:50:17.517Z,95290.00
2023-04-28T08:51:17.567Z,95289.00
2023-04-28T08:52:18.108Z,95287.00
2023-04-28T08:53:17.642Z,95285.00
2023-04-28T08:54:25.473Z,95289.00
2023-04-28T08:55:18.681Z,95289.00
2023-04-28T08:56:17.669Z,95283.00
2023-04-28T08:57:18.133Z,95290.00
2023-04-28T08:58:17.630Z,95287.00
2023-04-28T08:59:17.622Z,95283.00
2023-04-28T09:00:17.612Z,95281.00
2023-04-28T09:01:17.692Z,95285.00
2023-04-28T09:02:18.278Z,95287.00
2023-04-28T09:03:17.767Z,95287.00
2023-04-28T09:04:18.122Z,95285.00
2023-04-28T09:05:17.707Z,95283.00
2023-04-28T09:06:17.588Z,95287.00
2023-04-28T09:07:17.652Z,95283.00
2023-04-28T09:08:17.699Z,95283.00
2023-04-28T09:09:17.664Z,95285.00
2023-04-28T09:10:17.731Z,95283.00
2023-04-28T09:11:17.720Z,95285.00
2023-04-28T09:12:17.723Z,95287.00
2023-04-28T09:13:17.746Z,95285.00
2023-04-28T09:14:18.034Z,95287.00
2023-04-28T09:15:17.777Z,95283.00
2023-04-28T09:16:17.859Z,95290.00
2023-04-28T09:17:17.834Z,95287.00
2023-04-28T09:18:17.916Z,95290.00
2023-04-28T09:19:18.042Z,95287.00
2023-04-28T09:20:18.065Z,95285.00
2023-04-28T09:21:18.028Z,95287.00
2023-04-28T09:22:25.413Z,95285.00
2023-04-28T09:23:19.133Z,95279.00
2023-04-28T09:24:18.220Z,95277.00
2023-04-28T09:25:18.066Z,95271.00
2023-04-28T09:26:18.042Z,95273.00
2023-04-28T09:27:18.054Z,95275.00
2023-04-28T09:28:18.018Z,95277.00
2023-04-28T09:29:18.031Z,95273.00
2023-04-28T09:30:18.029Z,95273.00
2023-04-28T09:31:18.026Z,95275.00
2023-04-28T09:32:18.112Z,95275.00
2023-04-28T09:33:18.130Z,95277.00
2023-04-28T09:34:18.126Z,95275.00
2023-04-28T09:35:17.996Z,95283.00
2023-04-28T09:36:17.983Z,95277.00
2023-04-28T09:37:17.991Z,95275.00
2023-04-28T09:38:18.161Z,95275.00
2023-04-28T09:39:17.967Z,95277.00
2023-04-28T09:40:17.976Z,95273.00
2023-04-28T09:41:18.030Z,95271.00
2023-04-28T09:42:18.039Z,95267.00
2023-04-28T09:43:21.804Z,95267.00
2023-04-28T09:44:18.373Z,95267.00
2023-04-28T09:45:18.082Z,95265.00
2023-04-28T09:46:18.042Z,95267.00
2023-04-28T09:47:17.991Z,95269.00
2023-04-28T09:48:17.995Z,95271.00
2023-04-28T09:49:17.987Z,95277.00
2023-04-28T09:50:18.039Z,95277.00
2023-04-28T09:51:17.950Z,95273.00
2023-04-28T09:52:17.951Z,95277.00
2023-04-28T09:53:17.956Z,95277.00
2023-04-28T09:54:17.930Z,95279.00
2023-04-28T09:55:17.937Z,95277.00
2023-04-28T09:56:17.971Z,95275.00
2023-04-28T09:57:17.914Z,95281.00
2023-04-28T09:58:18.138Z,95273.00
2023-04-28T09:59:17.900Z,95275.00
2023-04-28T10:00:17.904Z,95273.00
2023-04-28T10:01:17.964Z,95273.00
2023-04-28T10:03:19.968Z,95273.00
2023-04-28T10:04:06.994Z,95281.00
2023-04-28T10:04:18.001Z,95273.00
2023-04-28T10:05:18.062Z,95275.00
2023-04-28T10:06:17.851Z,95273.00
2023-04-28T10:07:17.843Z,95275.00
2023-04-28T10:08:18.173Z,95273.00
2023-04-28T10:09:17.824Z,95273.00
2023-04-28T10:10:17.834Z,95273.00
2023-04-28T10:11:17.808Z,95275.00
2023-04-28T10:12:17.807Z,95271.00
2023-04-28T10:13:17.828Z,95267.00
2023-04-28T10:14:17.816Z,95267.00
2023-04-28T10:15:17.799Z,95267.00
2023-04-28T10:16:17.869Z,95265.00
2023-04-28T10:17:17.797Z,95267.00
2023-04-28T10:18:17.771Z,95265.00
2023-04-28T10:19:17.763Z,95263.00
2023-04-28T10:20:17.771Z,95263.00
2023-04-28T10:21:17.780Z,95267.00
2023-04-28T10:22:17.742Z,95265.00
2023-04-28T10:23:17.742Z,95263.00
2023-04-28T10:24:17.758Z,95259.00
2023-04-28T10:25:17.740Z,95263.00
2023-04-28T10:26:17.708Z,95265.00
2023-04-28T10:27:17.712Z,95267.00
2023-04-28T10:28:18.139Z,95265.00
2023-04-28T10:29:17.696Z,95265.00
2023-04-28T10:31:17.768Z,95261.00
2023-04-28T10:32:17.711Z,95259.00
2023-04-28T10:33:17.658Z,95261.00
2023-04-28T10:34:17.677Z,95261.00
2023-04-28T10:35:17.669Z,95263.00
2023-04-28T10:36:19.379Z,95263.00
2023-04-28T10:37:18.636Z,95259.00
2023-04-28T10:38:17.657Z,95253.00
2023-04-28T10:39:17.642Z,95253.00
2023-04-28T10:40:17.667Z,95255.00
2023-04-28T10:41:17.616Z,95251.00
2023-04-28T10:42:17.621Z,95249.00
2023-04-28T10:43:17.628Z,95253.00
2023-04-28T10:44:17.645Z,95251.00
2023-04-28T10:45:17.619Z,95249.00
2023-04-28T10:46:17.614Z,95247.00
2023-04-28T10:47:17.584Z,95244.00
2023-04-28T10:48:17.639Z,95242.00
2023-04-28T10:49:17.584Z,95244.00
2023-04-28T10:50:19.985Z,95242.00
2023-04-28T10:51:17.755Z,95240.00
2023-04-28T10:52:17.761Z,95242.00
2023-04-28T10:53:17.753Z,95240.00
2023-04-28T10:54:17.863Z,95238.00
2023-04-28T10:55:22.079Z,95238.00
2023-04-28T10:56:17.796Z,95238.00
2023-04-28T10:57:17.792Z,95238.00
2023-04-28T10:58:17.785Z,95234.00
2023-04-28T10:59:17.760Z,95234.00
2023-04-28T11:00:17.791Z,95230.00
2023-04-28T11:01:17.764Z,95230.00
2023-04-28T11:02:17.775Z,95232.00
2023-04-28T11:03:17.808Z,95232.00
2023-04-28T11:04:17.983Z,95234.00
2023-04-28T11:05:17.839Z,95228.00
2023-04-28T11:06:18.128Z,95228.00
2023-04-28T11:07:17.709Z,95230.00
2023-04-28T11:08:17.791Z,95230.00
2023-04-28T11:09:17.776Z,95228.00
2023-04-28T11:10:17.688Z,95228.00
2023-04-28T11:11:17.713Z,95228.00
2023-04-28T11:12:17.688Z,95228.00
2023-04-28T11:13:17.665Z,95226.00
2023-04-28T11:14:17.649Z,95226.00
2023-04-28T11:15:17.657Z,95224.00
2023-04-28T11:16:17.695Z,95224.00
2023-04-28T11:17:17.643Z,95220.00
2023-04-28T11:18:17.613Z,95216.00
2023-04-28T11:19:17.590Z,95216.00
2023-04-28T11:20:17.624Z,95208.00
2023-04-28T11:21:17.618Z,95208.00
2023-04-28T11:22:17.587Z,95204.00
2023-04-28T11:23:17.604Z,95200.00
2023-04-28T11:24:17.570Z,95200.00
2023-04-28T11:25:17.567Z,95200.00
2023-04-28T11:26:17.648Z,95196.00
2023-04-28T11:27:17.591Z,95196.00
2023-04-28T11:28:17.627Z,95195.00
2023-04-28T11:29:17.665Z,95195.00
2023-04-28T11:30:17.704Z,95193.00
2023-04-28T11:31:17.768Z,95193.00
2023-04-28T11:32:17.832Z,95193.00
2023-04-28T11:33:17.846Z,95187.00
2023-04-28T11:34:17.833Z,95187.00
2023-04-28T11:35:17.846Z,95191.00
2023-04-28T11:36:17.881Z,95187.00
2023-04-28T11:37:18.210Z,95185.00
2023-04-28T11:38:18.134Z,95179.00
2023-04-28T11:39:17.996Z,95179.00
2023-04-28T11:40:18.023Z,95177.00
2023-04-28T11:41:18.061Z,95183.00
2023-04-28T11:42:18.058Z,95189.00
2023-04-28T11:43:18.106Z,95195.00
2023-04-28T11:44:18.142Z,95196.00
2023-04-28T11:45:18.170Z,95202.00